EGNTEGMC

Guest
Details From EGNT - Newcastle
To EGMC - Southend
Flight Number -
Tags generated
Created
Modified
Stats Distance 226 nm / 418 km
Max Altitude 25,400 ft / 7,742 m
Waypoints 4
Social Downloads 13
Likes 0
Share VATSIM

Download

Looking for another format? Having issues loading an existing format? Contact us
Advertisement - Login to hide

Notes

Basic altitude profile: - Ascent Rate: 2500ft/min - Ascent Speed: 250kts - Cruise Altitude: 35000ft - Cruise Speed: 420kts - Descent Rate: 1500ft/min - Descent Speed: 250kts Options: - Use NATs: yes - Use PACOTS: yes - Use low airways: yes - Use high airways: yes

Route

EGNT POL57 ROCAG EGMC

ID Type Via Altitude Latitude Longitude Leg Dist Tot Dist Heading (true) Name
O EGNT APT - 0 ft / 0 m 55.03792˚ -1.68983˚ - 0 nm - Newcastle
POL57 FIX - 25,400 ft / 7,742 m 53.46528˚ -0.57889˚ 102 nm 102 nm 157° / 158° -
ROCAG FIX - 21,700 ft / 6,614 m 53.23529˚ -0.29747˚ 17 nm 119 nm 144° / 144° -
O EGMC APT - 0 ft / 0 m 51.57144˚ 0.69558˚ 106 nm 225 nm 160° / 160° Southend

Altitude Profile

Advertisement - Login to hide

Weather


0- 5 10 15 20 25 30 35+ Temperature / ° C

Clouds and Precipitation
Forecast for 2018-05-25 12:00 UTC. Updated 4 hours ago

Ground ~20,000 ft ~40,000 ft Winds

EGNT

Details ICAO EGNT (NCL)
Name Newcastle
Region United Kingdom
Timezone Europe/London (UTC+1.0)
Stats Elevation 266 ft / 81 m (AMSL)
Location 55.037922° -1.689833°
Runways 1
Magnetic Variation 1.405° W

METAR

EGNT 251450Z 03013KT 9999 -SHRA SCT025 13/11 Q1023

Decode

TAF

TAF EGNT 251057Z 2512/2612 03009KT 9999 SCT018 TEMPO 2512/2606 7000 SHRA BKN012 PROB30 TEMPO 2516/2606 3000 +SHRA BKN005

Decode

Departure Runways

ID Width Length Bearing (true) Bearing (mag) Surface Threshold Offset Overrun Length
07 151 ft / 46 m 7,621 ft / 2,323 m 65.13° 66.54° Asphalt 394 ft / 120 m 108 ft / 33 m
25 151 ft / 46 m 7,621 ft / 2,323 m 245.16° 246.57° Asphalt 446 ft / 136 m 56 ft / 17 m

EGMC

Details ICAO EGMC (SEN)
Name Southend
Region United Kingdom
Timezone Europe/London (UTC+1.0)
Stats Elevation 49 ft / 15 m (AMSL)
Location 51.571443° 0.695583°
Runways 1
Magnetic Variation 0.106° W

METAR

EGMC 251450Z 00000KT 8000 BKN021 19/13 Q1018

Decode

TAF

Not found

Destination Runways

ID Width Length Bearing (true) Bearing (mag) Surface Threshold Offset Overrun Length
06 121 ft / 37 m 5,230 ft / 1,594 m 54.10° 54.21° Asphalt 558 ft / 170 m 0 ft / 0 m
24 121 ft / 37 m 5,230 ft / 1,594 m 234.11° 234.22° Asphalt 466 ft / 142 m 0 ft / 0 m

Approach Navaids

Runway Type Ident Frequency Range Bearing (true) Bearing (mag) Slope Elevation
24 Localiser IND 111.35 MHz 18 nm / 33 km 234.08° 234.19° - 49 ft / 15 m (AMSL)
24 Glidescope IND 111.35 MHz 10 nm / 19 km 234.10° 234.21° 3.50° 49 ft / 15 m (AMSL)
24 DME IND 111.35 MHz 18 nm / 33 km - - - 49 ft / 15 m (AMSL)

Popular Alternatives